Data for 06/09/2013

Time Sea-Level Adjusted Pressure Absolute Pressure Temperature Relative Humidity Dew Point Precipitation   
(mb) (inHg) (mb) (inHg) (C) (F) (%) (C) (F) (mm) (in)
00:05 1020 30.12 849 25.07 9.6 49.3 68 4 39.2 0 0
00:10 1020 30.12 849 25.07 9.5 49.2 68 3.9 39 0 0
00:15 1020 30.12 849 25.07 9.7 49.4 67 4 39.1 0 0
00:20 1020 30.12 849 25.07 9.6 49.3 68 4 39.1 0 0
00:25 1020 30.12 849 25.07 9.6 49.2 69 4.2 39.6 0 0
00:30 1020 30.12 849 25.07 9.5 49 69 4 39.2 0 0
00:35 1020 30.12 849 25.07 9.2 48.5 71 4.3 39.7 0 0
00:40 1020 30.12 849 25.07 8.8 47.9 72 4.1 39.3 0 0
00:45 1020 30.12 849 25.07 8.6 47.5 73 4 39.3 0 0
00:50 1020 30.12 849 25.07 8.4 47.1 74 4 39.2 0 0
00:55 1020 30.12 849 25.07 8 46.4 74 3.7 38.6 0 0
01:00 1020 30.12 849 25.07 7.9 46.2 75 3.8 38.8 0 0
01:05 1020 30.12 849 25.07 7.8 46 74 3.4 38.2 0 0
01:10 1020 30.12 849 25.07 8.1 46.6 72 3.4 38.2 0 0
01:15 1020 30.12 849 25.07 8.3 47 72 3.6 38.6 0 0
01:20 1020 30.12 849 25.07 8.2 46.8 72 3.5 38.3 0 0
01:25 1020 30.12 849 25.07 8.2 46.8 71 3.3 37.9 0 0
01:30 1020 30.12 849 25.07 8.5 47.3 69 3.2 37.7 0 0
01:35 1020 30.12 849 25.07 8.8 47.9 68 3.3 37.9 0 0
01:40 1020 30.12 849 25.07 8.9 48.1 67 3.1 37.5 0 0
01:45 1020 30.12 849 25.07 9 48.2 68 3.5 38.3 0 0
01:50 1020 30.12 849 25.07 8.7 47.6 69 3.3 38 0 0
01:55 1020 30.12 849 25.07 8.4 47.2 70 3.3 38 0 0
02:00 1020 30.12 849 25.07 8 46.5 73 3.5 38.3 0 0
02:05 1020 30.12 849 25.07 7.1 44.7 78 3.6 38.4 0 0
02:10 1020 30.12 849 25.07 6.2 43.2 81 3.2 37.8 0 0
02:15 1020 30.12 849 25.07 6 42.8 82 3.2 37.8 0 0
02:20 1020 30.12 849 25.07 6 42.9 81 3 37.3 0 0
02:25 1020 30.12 849 25.07 6.5 43.7 78 3 37.4 0 0
02:30 1020 30.12 849 25.07 6.7 44 77 3 37.3 0 0
02:35 1020 30.12 849 25.07 6.4 43.6 78 2.9 37.3 0 0
02:40 1020 30.12 849 25.07 6.4 43.5 78 2.8 37 0 0
02:45 1020 30.12 849 25.07 6.4 43.6 78 2.9 37.2 0 0
02:50 1020 30.12 849 25.07 6.5 43.8 75 2.5 36.5 0 0
02:55 1020 30.12 849 25.07 6.4 43.5 77 2.6 36.6 0 0
03:00 1020 30.12 849 25.07 6.2 43.2 79 2.8 37.1 0 0
03:05 1020 30.12 849 25.07 5.4 41.8 79 2.1 35.8 0 0
03:10 1020 30.12 849 25.07 6.3 43.3 76 2.4 36.4 0 0
03:15 1020 30.12 849 25.07 6.3 43.3 78 2.8 37 0 0
03:20 1020 30.12 849 25.07 6.1 43 79 2.7 36.9 0 0
03:25 1020 30.12 849 25.07 6.1 43 79 2.8 37 0 0
03:30 1020 30.12 849 25.07 6 42.8 78 2.5 36.6 0 0
03:35 1020 30.12 849 25.07 6.3 43.3 77 2.6 36.6 0 0
03:40 1020 30.12 849 25.07 6.3 43.3 79 2.9 37.2 0 0
03:45 1020 30.12 849 25.07 5.9 42.7 80 2.7 36.9 0 0
03:50 1020 30.12 849 25.07 5.6 42 81 2.5 36.5 0 0
03:55 1020 30.12 849 25.07 5.6 42.1 78 2.1 35.8 0 0
04:00 1020 30.12 849 25.07 5.7 42.3 79 2.4 36.4 0 0
04:05 1020 30.12 849 25.07 5.5 41.8 81 2.4 36.3 0 0
04:10 1020 30.12 849 25.07 5.4 41.6 81 2.4 36.3 0 0
04:15 1020 30.12 849 25.07 5.6 42.1 80 2.4 36.3 0 0
04:20 1020 30.12 849 25.07 5.6 42.1 81 2.6 36.6 0 0
04:25 1020 30.12 849 25.07 5.6 42 81 2.6 36.6 0 0
04:30 1020 30.12 849 25.07 5.3 41.6 82 2.5 36.5 0 0
04:35 1020 30.12 849 25.07 5.3 41.5 80 2.2 35.9 0 0
04:40 1020 30.12 849 25.07 5.4 41.8 80 2.3 36.2 0 0
04:45 1020 30.12 849 25.07 5.7 42.3 80 2.5 36.6 0 0
04:50 1020 30.12 849 25.07 5.6 42.1 81 2.6 36.6 0 0
04:55 1020 30.12 849 25.07 5.6 42.1 81 2.5 36.6 0 0
05:00 1020 30.12 849 25.07 5.2 41.4 83 2.6 36.7 0 0
05:05 1020 30.12 849 25.07 5 41 83 2.3 36.2 0 0
05:10 1020 30.12 849 25.07 5 41 82 2.3 36.1 0 0
05:15 1020 30.12 849 25.07 5.3 41.5 81 2.3 36.1 0 0
05:20 1020 30.12 849 25.07 5.4 41.7 82 2.6 36.6 0 0
05:25 1020 30.12 849 25.07 5.6 42 79 2.2 36 0 0
05:30 1020 30.12 849 25.07 5.9 42.6 79 2.5 36.5 0 0
05:35 1020 30.12 849 25.07 6 42.7 78 2.5 36.4 0 0
05:40 1020 30.12 849 25.07 5.8 42.4 80 2.6 36.6 0 0
05:45 1020 30.12 849 25.07 5.7 42.2 80 2.4 36.3 0 0
05:50 1020 30.12 849 25.07 5.8 42.4 79 2.5 36.5 0 0
05:55 1020 30.12 849 25.07 5.9 42.6 78 2.3 36.2 0 0
06:00 1019 30.09 849 25.07 6.1 42.9 78 2.5 36.5 0 0
06:05 1020 30.12 849 25.07 6.2 43.1 77 2.4 36.2 0 0
06:10 1020 30.12 849 25.07 6.5 43.8 75 2.4 36.2 0 0
06:15 1020 30.12 849 25.07 7 44.5 75 2.8 37 0 0
06:20 1020 30.12 849 25.07 7 44.7 75 2.9 37.2 0 0
06:25 1020 30.12 849 25.07 7.3 45.1 73 2.8 37.1 0 0
06:30 1020 30.12 849 25.07 7.9 46.2 72 3.1 37.6 0 0
06:35 1020 30.12 849 25.07 8.5 47.3 68 2.9 37.2 0 0
06:40 1019 30.09 849 25.07 9 48.3 69 3.6 38.5 0 0
06:45 1019 30.09 849 25.07 9.1 48.4 70 3.9 39 0 0
06:50 1019 30.09 849 25.07 9.3 48.7 68 3.8 38.8 0 0
06:55 1019 30.09 849 25.07 9.7 49.4 65 3.5 38.3 0 0
07:00 1019 30.09 849 25.07 10.2 50.4 65 4.1 39.3 0 0
07:05 1019 30.09 849 25.07 10.8 51.4 65 4.4 39.9 0 0
07:10 1019 30.09 849 25.07 11.1 51.9 62 4.1 39.3 0 0
07:15 1019 30.09 849 25.07 11.5 52.8 60 4.1 39.5 0 0
07:20 1019 30.09 849 25.07 12 53.6 61 4.7 40.5 0 0
07:25 1019 30.09 849 25.07 12.4 54.3 57 4.2 39.5 0 0
07:30 1019 30.09 849 25.07 12.4 54.4 57 4.3 39.7 0 0
07:35 1019 30.09 849 25.07 12.5 54.5 58 4.6 40.3 0 0
07:40 1019 30.09 849 25.07 12.8 55 55 4 39.2 0 0
07:45 1019 30.09 849 25.07 13 55.5 54 4 39.2 0 0
07:50 1019 30.09 849 25.07 13.6 56.4 54 4.5 40.1 0 0
07:55 1019 30.09 848 25.04 13.9 56.9 53 4.4 40 0 0
08:00 1019 30.09 848 25.04 14 57.1 55 5.2 41.4 0 0
08:05 1019 30.09 848 25.04 14.3 57.7 57 6 42.8 0 0
08:10 1019 30.09 848 25.04 14.6 58.3 52 5 40.9 0 0
08:15 1019 30.09 848 25.04 14.8 58.6 52 5.1 41.2 0 0
08:20 1019 30.09 848 25.04 15.1 59.2 52 5.4 41.7 0 0
08:25 1019 30.09 848 25.04 15.7 60.3 48 4.8 40.7 0 0
08:30 1019 30.09 848 25.04 16.2 61.2 48 5.2 41.3 0 0
08:35 1019 30.09 848 25.04 16.4 61.6 48 5.6 42.1 0 0
08:40 1019 30.09 848 25.04 16.8 62.2 50 6.4 43.6 0 0
08:45 1019 30.09 848 25.04 16.9 62.5 43 4.5 40.1 0 0
08:50 1019 30.09 848 25.04 17.1 62.7 40 3.4 38.1 0 0
08:55 1019 30.09 848 25.04 17.3 63.1 40 3.6 38.5 0 0
09:00 1019 30.09 848 25.04 17.4 63.3 46 5.6 42.1 0 0
09:05 1019 30.09 848 25.04 17.5 63.5 49 6.9 44.4 0 0
09:10 1019 30.09 848 25.04 17.4 63.4 44 5.1 41.2 0 0
09:15 1019 30.09 848 25.04 17.9 64.1 42 5.1 41.1 0 0
09:20 1019 30.09 848 25.04 18.2 64.8 36 2.9 37.3 0 0
09:25 1019 30.09 848 25.04 18.3 64.9 45 6.2 43.1 0 0
09:30 1019 30.09 848 25.04 19.1 66.3 42 6.1 43 0 0
09:35 1019 30.09 848 25.04 19 66.2 33 2.3 36.2 0 0
09:40 1018 30.06 848 25.04 19.2 66.6 36 4 39.1 0 0
09:45 1018 30.06 848 25.04 19 66.1 29 0.5 32.8 0 0
09:50 1018 30.06 848 25.04 19 66.2 37 4 39.2 0 0
09:55 1018 30.06 847 25.01 19.2 66.5 33 2.7 36.9 0 0
10:00 1018 30.06 847 25.01 19.4 66.8 31 1.9 35.5 0 0
10:05 1018 30.06 847 25.01 20.2 68.3 32 2.9 37.3 0 0
10:10 1018 30.06 847 25.01 20 67.9 28 1.1 34.1 0 0
10:15 1018 30.06 847 25.01 19.9 67.8 33 3.2 37.7 0 0
10:20 1018 30.06 847 25.01 19.7 67.5 31 2.2 35.9 0 0
10:25 1018 30.06 847 25.01 20.2 68.3 28 1.3 34.3 0 0
10:30 1018 30.06 847 25.01 20.8 69.4 28 1.6 34.8 0 0
10:35 1018 30.06 847 25.01 20.7 69.2 33 4.2 39.6 0 0
10:40 1018 30.06 847 25.01 20.5 68.8 39 6.3 43.4 0 0
10:45 1017 30.03 847 25.01 20.7 69.3 42 7.5 45.5 0 0
10:50 1017 30.03 847 25.01 20.8 69.4 37 5.8 42.5 0 0
10:55 1017 30.03 846 24.98 20.5 68.8 42 7.4 45.3 0 0
11:00 1017 30.03 846 24.98 20.7 69.3 37 5.6 42.1 0 0
11:05 1017 30.03 846 24.98 20.8 69.4 47 9.4 48.8 0 0
11:10 1017 30.03 846 24.98 21.2 70.1 32 4 39.3 0 0
11:15 1017 30.03 846 24.98 21.4 70.6 29 2.8 37 0 0
11:20 1017 30.03 846 24.98 21.6 70.8 29 2.7 36.9 0 0
11:25 1017 30.03 846 24.98 21.6 70.9 33 4.8 40.6 0 0
11:30 1017 30.03 846 24.98 21.3 70.3 33 4.5 40 0 0
11:35 1017 30.03 846 24.98 21.4 70.6 29 2.7 36.9 0 0
11:40 1017 30.03 846 24.98 21.7 71 39 7.5 45.4 0 0
11:45 1017 30.03 846 24.98 21.6 70.8 44 8.9 48.1 0 0
11:50 1017 30.03 846 24.98 21.8 71.2 42 8.4 47.2 0 0
11:55 1016 30 846 24.98 22.1 71.7 32 4.8 40.7 0 0
12:00 1016 30 846 24.98 21.9 71.4 30 3.8 38.8 0 0
12:05 1016 30 845 24.95 21.9 71.5 40 7.7 45.9 0 0
12:10 1016 30 845 24.95 22.1 71.8 35 6.1 43 0 0
12:15 1016 30 845 24.95 22.1 71.8 42 8.7 47.6 0 0
12:20 1016 30 845 24.95 22.6 72.7 35 6.7 44 0 0
12:25 1016 30 845 24.95 22.8 73 27 2.9 37.3 0 0
12:30 1016 30 845 24.95 22.8 73.1 35 6.6 43.8 0 0
12:35 1016 30 845 24.95 23.1 73.5 38 8.2 46.8 0 0
12:40 1016 30 845 24.95 22.8 73.1 34 6.2 43.2 0 0
12:45 1016 30 845 24.95 22.8 73 38 7.9 46.2 0 0
12:50 1016 30 845 24.95 23.2 73.8 26 3 37.5 0 0
12:55 1016 30 845 24.95 23.6 74.5 31 5.9 42.6 0 0
13:00 1016 30 845 24.95 23.7 74.7 30 5.2 41.4 0 0
13:05 1016 30 845 24.95 23.5 74.3 30 5.3 41.6 0 0
13:10 1016 30 845 24.95 23.7 74.6 33 6.9 44.3 0 0
13:15 1015 29.97 845 24.95 23.7 74.7 37 8.3 47 0 0
13:20 1015 29.97 845 24.95 24.1 75.4 37 8.5 47.3 0 0
13:25 1015 29.97 844 24.92 24.5 76 39 9.7 49.5 0 0
13:30 1015 29.97 844 24.92 24.4 75.9 29 5.3 41.6 0 0
13:35 1015 29.97 844 24.92 24.5 76.1 27 4.6 40.2 0 0
13:40 1015 29.97 844 24.92 25 77.1 26 4.5 40.1 0 0
13:45 1015 29.97 844 24.92 24.9 76.9 28 5.5 41.9 0 0
13:50 1015 29.97 844 24.92 25.2 77.4 25 3.9 38.9 0 0
13:55 1015 29.97 844 24.92 25.2 77.4 28 5.7 42.3 0 0
14:00 1015 29.97 844 24.92 24.9 76.7 26 4.4 39.8 0 0
14:05 1015 29.97 844 24.92 24.9 76.8 26 4.3 39.7 0 0
14:10 1015 29.97 844 24.92 25.1 77.3 25 3.7 38.7 0 0
14:15 1015 29.97 844 24.92 25.3 77.6 29 6.1 43 0 0
14:20 1015 29.97 844 24.92 25.3 77.6 24 3.7 38.6 0 0
14:25 1014 29.94 844 24.92 25.3 77.6 26 4.7 40.5 0 0
14:30 1014 29.94 844 24.92 25.4 77.7 29 6.3 43.4 0 0
14:35 1014 29.94 844 24.92 25.4 77.7 32 7.6 45.6 0 0
14:40 1014 29.94 844 24.92 25.5 78 36 9.4 49 0 0
14:45 1014 29.94 843 24.89 25.7 78.2 28 5.8 42.5 0 0
14:50 1014 29.94 843 24.89 26.2 79.1 27 5.8 42.5 0 0
14:55 1014 29.94 843 24.89 26.6 79.8 25 5 40.9 0 0
15:00 1014 29.94 843 24.89 26.6 79.9 26 6.1 42.9 0 0
15:05 1014 29.94 843 24.89 26.6 79.9 23 4.1 39.5 0 0
15:10 1014 29.94 843 24.89 26.5 79.8 28 6.6 43.8 0 0
15:15 1014 29.94 843 24.89 26.6 79.9 24 4.8 40.6 0 0
15:20 1014 29.94 843 24.89 26.7 80.1 23 4 39.3 0 0
15:25 1014 29.94 843 24.89 26.9 80.4 19 1.7 35 0 0
15:30 1014 29.94 843 24.89 26.8 80.2 21 2.8 37 0 0
15:35 1014 29.94 843 24.89 27.1 80.7 21 3.1 37.6 0 0
15:40 1014 29.94 843 24.89 27 80.5 21 2.8 37 0 0
15:45 1014 29.94 843 24.89 26.8 80.2 24 4.8 40.6 0 0
15:50 1014 29.94 843 24.89 26.5 79.7 20 2.1 35.8 0 0
15:55 1014 29.94 843 24.89 27.1 80.8 20 2.3 36.1 0 0
16:00 1013 29.91 843 24.89 27.2 81 22 3.9 39 0 0
16:05 1013 29.91 843 24.89 27.2 81 27 7.1 44.8 0 0
16:10 1013 29.91 843 24.89 27.3 81.2 20 2.6 36.6 0 0
16:15 1013 29.91 843 24.89 27.3 81.1 23 4.3 39.8 0 0
16:20 1013 29.91 842 24.86 27.4 81.3 20 2.9 37.3 0 0
16:25 1013 29.91 842 24.86 27.4 81.2 23 4.4 39.9 0 0
16:30 1013 29.91 842 24.86 27.3 81.1 22 4.1 39.3 0 0
16:35 1013 29.91 842 24.86 27.3 81.1 22 4.1 39.5 0 0
16:40 1013 29.91 842 24.86 27.6 81.6 22 4.1 39.4 0 0
16:45 1013 29.91 842 24.86 27.4 81.4 22 3.8 38.9 0 0
16:50 1013 29.91 842 24.86 27.4 81.3 22 4.2 39.6 0 0
16:55 1013 29.91 842 24.86 27.5 81.5 21 3.5 38.3 0 0
17:00 1013 29.91 842 24.86 27.5 81.4 22 4.4 39.9 0 0
17:05 1013 29.91 842 24.86 27.4 81.3 21 3.7 38.7 0 0
17:10 1013 29.91 842 24.86 27.3 81.2 22 4.1 39.4 0 0
17:15 1013 29.91 842 24.86 27.6 81.6 22 4.5 40 0 0
17:20 1013 29.91 842 24.86 27.6 81.7 21 3.3 38 0 0
17:25 1013 29.91 842 24.86 27.3 81.1 23 4.3 39.8 0 0
17:30 1013 29.91 842 24.86 27.6 81.6 21 3.9 39 0 0
17:35 1013 29.91 842 24.86 27.1 80.9 22 3.8 38.8 0 0
17:40 1013 29.91 842 24.86 26.4 79.5 24 4.4 39.9 0 0
17:45 1013 29.91 842 24.86 26.2 79.1 25 5.1 41.1 0 0
17:50 1012 29.88 842 24.86 26.3 79.4 26 5.7 42.3 0 0
17:55 1012 29.88 842 24.86 26.6 79.9 24 4.9 40.9 0 0
18:00 1012 29.88 842 24.86 26.3 79.3 25 4.8 40.6 0 0
18:05 1012 29.88 842 24.86 27.1 80.7 22 3.9 39.1 0 0
18:10 1012 29.88 842 24.86 26.7 80.1 25 5.3 41.6 0 0
18:15 1012 29.88 842 24.86 25.7 78.3 28 6 42.8 0 0
18:20 1012 29.88 842 24.86 25.4 77.7 27 5.3 41.6 0 0
18:25 1012 29.88 842 24.86 25.4 77.8 30 7 44.6 0 0
18:30 1013 29.91 842 24.86 24.7 76.5 32 7 44.5 0 0
18:35 1012 29.88 842 24.86 24.4 75.8 35 7.9 46.3 0 0
18:40 1012 29.88 842 24.86 24.6 76.2 35 8.4 47.1 0 0
18:45 1012 29.88 842 24.86 25 77 37 9.6 49.4 0 0
18:50 1012 29.88 842 24.86 24.2 75.6 44 11.5 52.7 0 0
18:55 1012 29.88 842 24.86 23.3 73.9 40 9.1 48.3 0 0
19:00 1012 29.88 842 24.86 22.9 73.2 44 10.3 50.6 0 0
19:05 1012 29.88 842 24.86 22.8 73 42 9.4 48.9 0 0
19:10 1012 29.88 842 24.86 23.2 73.8 39 8.9 48 0 0
19:15 1012 29.88 842 24.86 23.5 74.2 42 10.1 50.3 0 0
19:20 1012 29.88 842 24.86 23.4 74.2 46 11.3 52.4 0 0
19:25 1012 29.88 842 24.86 23.3 73.9 37 8.1 46.5 0 0
19:30 1012 29.88 842 24.86 23.3 74 43 10.1 50.2 0 0
19:35 1013 29.91 842 24.86 23.4 74 37 8 46.4 0 0
19:40 1013 29.91 842 24.86 23.8 74.9 31 5.9 42.6 0 0
19:45 1013 29.91 842 24.86 23.4 74.1 30 5 41 0 0
19:50 1013 29.91 842 24.86 22.8 73.1 33 6 42.7 0 0
19:55 1013 29.91 842 24.86 23.3 74 33 6.3 43.3 0 0
20:00 1013 29.91 842 24.86 23.5 74.3 30 4.9 40.8 0 0
20:05 1013 29.91 842 24.86 23.5 74.3 32 6.3 43.3 0 0
20:10 1013 29.91 842 24.86 23.3 73.9 31 5.3 41.6 0 0
20:15 1013 29.91 842 24.86 22.7 72.8 32 5.2 41.4 0 0
20:20 1013 29.91 842 24.86 21.9 71.5 29 3.4 38.2 0 0
20:25 1013 29.91 842 24.86 21.5 70.8 30 3.6 38.5 0 0
20:30 1013 29.91 842 24.86 21.1 69.9 30 3 37.4 0 0
20:35 1013 29.91 843 24.89 20.6 69.1 29 2 35.6 0 0
20:40 1014 29.94 843 24.89 20.5 68.9 28 1.6 34.9 0 0
20:45 1014 29.94 843 24.89 20.5 68.9 27 1.2 34.2 0 0
20:50 1014 29.94 843 24.89 20.7 69.2 26 0.5 32.8 0 0
20:55 1014 29.94 843 24.89 20.6 69 31 2.9 37.1 0 0
21:00 1014 29.94 843 24.89 19.9 67.8 30 2.2 35.9 0 0
21:05 1014 29.94 843 24.89 19 66.2 30 1.4 34.5 0 0
21:10 1014 29.94 843 24.89 18.5 65.3 32 1.5 34.6 0 0
21:15 1014 29.94 843 24.89 18 64.5 31 0.7 33.2 0 0
21:20 1014 29.94 843 24.89 18.1 64.5 30 0.2 32.4 0 0
21:25 1014 29.94 843 24.89 17.8 64 30 0.2 32.3 0 0
21:30 1014 29.94 844 24.92 17.2 62.9 34 1.1 34 0 0
21:35 1014 29.94 844 24.92 16.3 61.3 38 2.1 35.7 0 0
21:40 1014 29.94 844 24.92 15.3 59.5 42 2.4 36.3 0 0
21:45 1015 29.97 844 24.92 14.9 58.7 38 0.7 33.2 0 0
21:50 1015 29.97 844 24.92 14.9 58.9 40 1.4 34.5 0 0
21:55 1015 29.97 844 24.92 14.6 58.2 38 0.3 32.6 0 0
22:00 1015 29.97 844 24.92 14.8 58.6 36 -0.2 31.7 0 0
22:05 1015 29.97 844 24.92 15.3 59.5 37 0.8 33.4 0 0
22:10 1015 29.97 844 24.92 15.1 59.2 32 -1.3 29.7 0 0
22:15 1015 29.97 844 24.92 16.1 61 30 -1.4 29.4 0 0
22:20 1015 29.97 844 24.92 16.5 61.6 30 -1 30.1 0 0
22:25 1015 29.97 844 24.92 16.2 61.2 32 -0.2 31.6 0 0
22:30 1015 29.97 844 24.92 15.6 60 32 -0.8 30.6 0 0
22:35 1015 29.97 845 24.95 15.8 60.4 30 -1.5 29.2 0 0
22:40 1015 29.97 845 24.95 15.7 60.3 30 -1.7 29 0 0
22:45 1016 30 845 24.95 15.9 60.6 32 -0.8 30.5 0 0
22:50 1016 30 845 24.95 15.5 59.9 34 -0.2 31.6 0 0
22:55 1016 30 845 24.95 13.6 56.5 51 3.7 38.6 0 0
23:00 1016 30 845 24.95 11.2 52.1 54 2.2 36 0 0
23:05 1016 30 845 24.95 10.7 51.2 59 2.9 37.2 0 0
23:10 1016 30 845 24.95 10.3 50.5 58 2.4 36.4 0 0
23:15 1016 30 845 24.95 9.9 49.8 61 2.9 37.2 0 0
23:20 1016 30 845 24.95 9.5 49.2 60 2.1 35.8 0 0
23:25 1016 30 845 24.95 9.4 48.9 70 4.1 39.4 0 0
23:30 1016 30 845 24.95 7.6 45.7 75 3.4 38.1 0 0
23:35 1016 30 845 24.95 7.6 45.6 76 3.6 38.4 0 0
23:40 1016 30 845 24.95 7.2 45 77 3.5 38.3 0 0
23:45 1016 30 845 24.95 7.2 45 76 3.2 37.7 0 0
23:50 1016 30 845 24.95 7.3 45.2 76 3.4 38.2 0 0
23:55 1016 30 845 24.95 7 44.6 75 2.9 37.3 0 0
24:00 1016 30 845 24.95 7.3 45.1 75 3.3 37.9 0 0